createdAt,value
2019-06-07T00:00:38.109Z,12.95
2019-06-07T00:02:55.970Z,12.73
2019-06-07T00:05:25.067Z,14.85
2019-06-07T00:07:54.539Z,15.43
2019-06-07T00:10:36.079Z,17.12
2019-06-07T00:12:54.537Z,13.75
2019-06-07T00:15:28.730Z,19.57
2019-06-07T00:17:55.209Z,15.30
2019-06-07T00:20:24.744Z,17.98
2019-06-07T00:22:54.159Z,14.58
2019-06-07T00:25:24.572Z,14.78
2019-06-07T00:27:53.949Z,14.20
2019-06-07T00:30:50.762Z,15.48
2019-06-07T00:32:55.530Z,14.03
2019-06-07T00:35:24.887Z,14.18
2019-06-07T00:37:54.333Z,14.93
2019-06-07T00:40:31.105Z,12.58
2019-06-07T00:42:54.640Z,13.88
2019-06-07T00:45:24.652Z,12.90
2019-06-07T00:47:54.062Z,12.40
2019-06-07T00:50:24.307Z,11.90
2019-06-07T00:55:27.474Z,13.75
2019-06-07T00:57:56.109Z,14.38
2019-06-07T01:00:25.809Z,14.53
2019-06-07T01:02:55.275Z,18.48
2019-06-07T01:05:30.993Z,14.43
2019-06-07T01:07:55.669Z,12.75
2019-06-07T01:10:51.669Z,13.75
2019-06-07T01:12:55.756Z,13.78
2019-06-07T01:15:28.514Z,12.50
2019-06-07T01:20:26.992Z,15.20
2019-06-07T01:22:56.292Z,13.40
2019-06-07T01:25:26.438Z,11.85
2019-06-07T01:27:56.369Z,16.45
2019-06-07T01:30:26.956Z,14.58
2019-06-07T01:32:56.765Z,14.43
2019-06-07T01:35:25.984Z,14.45
2019-06-07T01:37:55.336Z,14.43
2019-06-07T01:40:31.846Z,14.68
2019-06-07T01:42:55.293Z,14.65
2019-06-07T01:45:26.189Z,16.48
2019-06-07T01:47:55.223Z,13.40
2019-06-07T01:50:26.968Z,16.85
2019-06-07T01:52:55.590Z,14.90
2019-06-07T01:55:27.282Z,14.53
2019-06-07T01:57:55.655Z,14.75
2019-06-07T02:00:26.589Z,14.60
2019-06-07T02:02:56.765Z,14.28
2019-06-07T02:05:30.303Z,13.78
2019-06-07T02:07:56.664Z,14.00
2019-06-07T02:10:29.929Z,15.08
2019-06-07T02:12:56.633Z,13.25
2019-06-07T02:15:30.638Z,11.88
2019-06-07T02:17:56.582Z,17.75
2019-06-07T02:20:28.180Z,10.98
2019-06-07T02:22:56.522Z,9.80
2019-06-07T02:25:48.701Z,10.18
2019-06-07T02:28:25.896Z,7.90
2019-06-07T02:30:44.855Z,9.98
2019-06-07T02:32:59.024Z,9.53
2019-06-07T02:35:38.744Z,11.55
2019-06-07T02:37:59.327Z,10.72
2019-06-07T02:40:36.013Z,11.57
2019-06-07T02:42:59.533Z,13.48
2019-06-07T02:45:35.404Z,29.25
2019-06-07T02:47:59.758Z,56.25
2019-06-07T02:50:35.387Z,35.20
2019-06-07T02:52:59.787Z,44.05
2019-06-07T02:55:33.744Z,54.05
2019-06-07T02:58:00.398Z,50.65
2019-06-07T03:01:03.903Z,60.43
2019-06-07T03:03:18.395Z,44.35
2019-06-07T03:05:47.745Z,29.65
2019-06-07T03:08:17.973Z,25.05
2019-06-07T03:10:49.128Z,49.33
2019-06-07T03:13:20.150Z,36.23
2019-06-07T03:15:51.355Z,34.48
2019-06-07T03:18:41.460Z,214.23
2019-06-07T03:21:13.911Z,146.15
2019-06-07T03:23:44.567Z,118.72
2019-06-07T03:26:15.257Z,104.43
2019-06-07T03:28:44.922Z,156.32
2019-06-07T03:31:14.043Z,175.78
2019-06-07T03:33:45.618Z,110.05
2019-06-07T03:36:23.835Z,90.17
2019-06-07T03:38:44.842Z,90.38
2019-06-07T03:41:13.932Z,76.87
2019-06-07T03:43:43.044Z,65.72
2019-06-07T03:46:12.337Z,65.70
2019-06-07T03:48:41.668Z,60.25
2019-06-07T03:51:23.997Z,71.47
2019-06-07T03:53:42.029Z,71.70
2019-06-07T03:56:14.092Z,77.82
2019-06-07T03:58:49.668Z,58.92
2019-06-07T04:01:13.664Z,67.62
2019-06-07T04:03:51.082Z,74.10
2019-06-07T04:06:13.790Z,54.35
2019-06-07T04:08:42.916Z,90.45
2019-06-07T04:11:12.091Z,93.05
2019-06-07T04:13:42.948Z,115.52
2019-06-07T04:16:12.044Z,117.90
2019-06-07T04:18:42.475Z,130.87
2019-06-07T04:21:11.774Z,83.45
2019-06-07T04:23:45.507Z,117.95
2019-06-07T04:26:11.784Z,84.03
2019-06-07T04:29:31.094Z,89.28
2019-06-07T04:31:12.085Z,63.60
2019-06-07T04:33:43.525Z,55.58
2019-06-07T04:36:12.590Z,102.58
2019-06-07T04:38:42.823Z,65.32
2019-06-07T04:41:13.711Z,68.28
2019-06-07T04:43:43.408Z,89.62
2019-06-07T04:46:13.502Z,68.17
2019-06-07T04:48:45.653Z,59.48
2019-06-07T04:51:16.672Z,94.65
2019-06-07T04:53:46.088Z,77.75
2019-06-07T04:56:15.343Z,64.35
2019-06-07T04:58:44.514Z,54.23
2019-06-07T05:01:26.881Z,108.70
2019-06-07T05:03:44.701Z,105.60
2019-06-07T05:06:14.721Z,69.65
2019-06-07T05:08:44.051Z,63.50
2019-06-07T05:11:13.341Z,73.95
2019-06-07T05:13:44.197Z,69.85
2019-06-07T05:16:13.473Z,52.95
2019-06-07T05:18:43.502Z,37.15
2019-06-07T05:21:12.791Z,21.97
2019-06-07T05:24:05.657Z,51.23
2019-06-07T05:26:12.967Z,26.10
2019-06-07T05:28:43.056Z,43.17
2019-06-07T05:31:12.852Z,25.95
2019-06-07T05:33:43.581Z,26.57
2019-06-07T05:36:12.942Z,32.48
2019-06-07T05:38:44.707Z,19.92
2019-06-07T05:41:13.022Z,50.85
2019-06-07T05:43:51.459Z,40.95
2019-06-07T05:46:13.323Z,27.07
2019-06-07T05:48:45.221Z,30.43
2019-06-07T05:51:14.447Z,19.77
2019-06-07T05:53:46.023Z,16.15
2019-06-07T05:56:15.248Z,15.35
2019-06-07T05:58:44.950Z,15.60
2019-06-07T06:01:42.119Z,13.18
2019-06-07T06:03:48.292Z,18.42
2019-06-07T06:06:18.156Z,14.15
2019-06-07T06:08:49.596Z,14.23
2019-06-07T06:11:19.164Z,11.68
2019-06-07T06:14:06.137Z,11.48
2019-06-07T06:16:19.850Z,12.28
2019-06-07T06:18:49.252Z,12.75
2019-06-07T06:21:20.243Z,13.93
2019-06-07T06:23:51.960Z,12.68
2019-06-07T06:26:20.474Z,12.43
2019-06-07T06:28:49.922Z,14.25
2019-06-07T06:31:19.104Z,11.63
2019-06-07T06:33:49.878Z,12.10
2019-06-07T06:36:19.561Z,17.77
2019-06-07T06:38:49.690Z,12.53
2019-06-07T06:41:21.112Z,12.00
2019-06-07T06:43:52.568Z,9.13
2019-06-07T06:46:38.100Z,11.75
2019-06-07T06:48:55.325Z,11.97
2019-06-07T06:51:24.235Z,12.60
2019-06-07T06:53:53.745Z,9.63
2019-06-07T06:56:23.333Z,10.30
2019-06-07T06:59:34.131Z,10.85
2019-06-07T07:01:24.292Z,9.08
2019-06-07T07:04:10.514Z,8.40
2019-06-07T07:06:26.894Z,8.25
2019-06-07T07:08:56.849Z,11.30
2019-06-07T07:11:25.982Z,9.25
2019-06-07T07:13:57.002Z,9.20
2019-06-07T07:16:26.025Z,9.05
2019-06-07T07:18:55.356Z,11.22
2019-06-07T07:21:24.620Z,9.85
2019-06-07T07:24:19.242Z,8.83
2019-06-07T07:26:24.878Z,8.48
2019-06-07T07:28:57.236Z,9.15
2019-06-07T07:31:25.200Z,9.13
2019-06-07T07:36:38.829Z,9.25
2019-06-07T07:39:04.514Z,11.75
2019-06-07T07:41:27.546Z,10.45
2019-06-07T07:44:04.714Z,9.78
2019-06-07T07:46:30.127Z,9.58
2019-06-07T07:48:59.481Z,11.80
2019-06-07T07:51:28.546Z,9.80
2019-06-07T07:54:10.109Z,12.13
2019-06-07T07:56:28.977Z,11.65
2019-06-07T07:59:01.829Z,9.68
2019-06-07T08:01:29.753Z,10.10
2019-06-07T08:04:03.448Z,11.43
2019-06-07T08:06:32.525Z,9.43
2019-06-07T08:09:01.965Z,11.63
2019-06-07T08:11:31.200Z,11.00
2019-06-07T08:14:08.349Z,11.15
2019-06-07T08:16:37.914Z,9.10
2019-06-07T08:19:07.357Z,12.07
2019-06-07T08:21:36.542Z,8.40
2019-06-07T08:24:05.793Z,10.32
2019-06-07T08:26:34.986Z,9.65
2019-06-07T08:29:05.123Z,11.53
2019-06-07T08:31:34.227Z,8.30
2019-06-07T08:34:03.734Z,9.78
2019-06-07T08:36:41.979Z,8.20
2019-06-07T08:39:07.573Z,11.40
2019-06-07T08:41:36.082Z,8.68
2019-06-07T08:44:22.720Z,8.58
2019-06-07T08:46:36.536Z,8.03
2019-06-07T08:49:06.176Z,10.20
2019-06-07T08:51:35.423Z,8.20
2019-06-07T08:54:21.516Z,8.90
2019-06-07T08:56:35.750Z,8.55
2019-06-07T08:59:11.070Z,6.83
2019-06-07T09:01:36.418Z,8.30
2019-06-07T09:04:10.505Z,8.35
2019-06-07T09:09:08.425Z,7.00
2019-06-07T09:11:37.807Z,5.87
2019-06-07T09:14:09.139Z,7.17
2019-06-07T09:16:37.770Z,7.03
2019-06-07T09:19:11.015Z,5.17
2019-06-07T09:21:37.865Z,4.70
2019-06-07T09:24:11.328Z,7.22
2019-06-07T09:26:40.849Z,5.12
2019-06-07T09:29:12.017Z,7.03
2019-06-07T09:31:52.590Z,6.42
2019-06-07T09:34:15.142Z,4.40
2019-06-07T09:36:44.393Z,5.22
2019-06-07T09:39:13.523Z,6.37
2019-06-07T09:41:49.501Z,6.92
2019-06-07T09:44:24.183Z,6.30
2019-06-07T09:46:45.155Z,6.58
2019-06-07T09:49:28.639Z,5.60
2019-06-07T09:51:45.375Z,5.45
2019-06-07T09:55:02.633Z,5.25
2019-06-07T09:56:46.617Z,4.75
2019-06-07T09:59:15.691Z,4.70
2019-06-07T10:01:44.932Z,4.53
2019-06-07T10:04:30.327Z,4.70
2019-06-07T10:06:45.339Z,4.70
2019-06-07T10:11:45.957Z,3.95
2019-06-07T10:14:15.123Z,5.10
2019-06-07T10:16:46.584Z,6.62
2019-06-07T10:19:15.412Z,5.35
2019-06-07T10:21:44.573Z,3.70
2019-06-07T10:24:13.970Z,4.20
2019-06-07T10:26:43.543Z,5.25
2019-06-07T10:29:12.994Z,4.95
2019-06-07T10:31:42.244Z,5.97
2019-06-07T10:34:11.417Z,6.10
2019-06-07T10:36:40.807Z,4.67
2019-06-07T10:39:11.387Z,6.85
2019-06-07T10:41:40.803Z,4.58
2019-06-07T10:44:11.342Z,4.12
2019-06-07T10:46:40.673Z,4.15
2019-06-07T10:49:10.197Z,7.22
2019-06-07T10:51:39.444Z,4.92
2019-06-07T10:54:21.933Z,4.50
2019-06-07T10:56:39.866Z,7.87
2019-06-07T10:59:09.705Z,5.33
2019-06-07T11:01:39.949Z,5.47
2019-06-07T11:04:09.612Z,4.67
2019-06-07T11:06:38.849Z,3.62
2019-06-07T11:09:09.912Z,5.22
2019-06-07T11:11:39.430Z,4.67
2019-06-07T11:14:08.652Z,4.75
2019-06-07T11:16:37.795Z,4.78
2019-06-07T11:19:08.058Z,5.65
2019-06-07T11:21:37.288Z,5.55
2019-06-07T11:24:06.502Z,6.67
2019-06-07T11:26:36.172Z,5.47
2019-06-07T11:29:06.688Z,5.87
2019-06-07T11:31:36.034Z,4.87
2019-06-07T11:34:06.334Z,5.83
2019-06-07T11:36:35.657Z,5.33
2019-06-07T11:39:06.994Z,8.55
2019-06-07T11:41:36.547Z,4.33
2019-06-07T11:44:06.677Z,4.15
2019-06-07T11:46:36.409Z,4.67
2019-06-07T11:49:06.330Z,7.33
2019-06-07T11:51:35.661Z,9.43
2019-06-07T11:54:04.984Z,5.62
2019-06-07T11:56:34.170Z,5.75
2019-06-07T11:59:04.041Z,7.37
2019-06-07T12:01:33.243Z,7.17
2019-06-07T12:04:03.120Z,4.42
2019-06-07T12:06:32.240Z,6.53
2019-06-07T12:09:01.460Z,3.77
2019-06-07T12:11:31.516Z,3.90
2019-06-07T12:14:00.638Z,3.87
2019-06-07T12:16:29.744Z,4.15
2019-06-07T12:18:58.934Z,4.35
2019-06-07T12:21:28.015Z,3.67
2019-06-07T12:23:57.448Z,5.12
2019-06-07T12:26:26.746Z,4.00
2019-06-07T12:28:55.941Z,4.00
2019-06-07T12:31:25.334Z,4.05
2019-06-07T12:33:54.446Z,4.42
2019-06-07T12:36:23.930Z,5.47
2019-06-07T12:38:53.884Z,4.30
2019-06-07T12:41:23.001Z,3.70
2019-06-07T12:43:52.275Z,8.75
2019-06-07T12:46:26.750Z,4.20
2019-06-07T12:48:52.508Z,6.60
2019-06-07T12:51:21.682Z,4.22
2019-06-07T12:53:50.897Z,4.25
2019-06-07T12:56:20.233Z,3.83
2019-06-07T12:58:49.580Z,3.95
2019-06-07T13:01:20.856Z,4.00
2019-06-07T13:03:50.349Z,3.25
2019-06-07T13:06:19.583Z,4.17
2019-06-07T13:08:48.873Z,4.15
2019-06-07T13:11:24.266Z,5.92
2019-06-07T13:13:49.315Z,4.20
2019-06-07T13:16:19.899Z,3.40
2019-06-07T13:18:49.626Z,4.95
2019-06-07T13:21:20.251Z,4.05
2019-06-07T13:23:49.690Z,7.17
2019-06-07T13:26:18.879Z,5.33
2019-06-07T13:28:48.354Z,3.98
2019-06-07T13:31:18.769Z,4.35
2019-06-07T13:33:48.506Z,3.83
2019-06-07T13:36:18.104Z,4.78
2019-06-07T13:38:47.516Z,4.05
2019-06-07T13:41:30.303Z,4.00
2019-06-07T13:43:51.491Z,4.08
2019-06-07T13:46:19.207Z,4.80
2019-06-07T13:48:48.310Z,4.37
2019-06-07T13:51:18.960Z,3.90
2019-06-07T13:53:49.906Z,5.42
2019-06-07T13:56:19.821Z,4.00
2019-06-07T13:58:49.097Z,3.83
2019-06-07T14:01:18.335Z,5.90
2019-06-07T14:03:47.501Z,4.20
2019-06-07T14:06:16.922Z,4.00
2019-06-07T14:08:46.107Z,3.67
2019-06-07T14:11:15.222Z,4.15
2019-06-07T14:13:44.511Z,4.80
2019-06-07T14:16:13.721Z,5.62
2019-06-07T14:18:43.216Z,4.20
2019-06-07T14:21:12.347Z,5.53
2019-06-07T14:23:48.769Z,4.55
2019-06-07T14:26:13.038Z,4.62
2019-06-07T14:28:42.262Z,4.00
2019-06-07T14:31:11.731Z,3.70
2019-06-07T14:33:41.309Z,3.75
2019-06-07T14:36:10.599Z,4.87
2019-06-07T14:38:40.032Z,4.80
2019-06-07T14:41:09.179Z,3.60
2019-06-07T14:43:38.562Z,5.08
2019-06-07T14:46:08.102Z,4.10
2019-06-07T14:48:37.419Z,3.92
2019-06-07T14:51:06.511Z,3.65
2019-06-07T14:53:36.464Z,4.87
2019-06-07T14:56:05.885Z,3.70
2019-06-07T14:58:40.008Z,5.95
2019-06-07T15:01:06.886Z,3.50
2019-06-07T15:03:36.096Z,3.80
2019-06-07T15:06:05.233Z,4.75
2019-06-07T15:08:34.931Z,4.33
2019-06-07T15:11:04.322Z,4.70
2019-06-07T15:13:33.681Z,4.75
2019-06-07T15:16:02.977Z,4.05
2019-06-07T15:18:32.098Z,4.17
2019-06-07T15:21:01.223Z,3.52
2019-06-07T15:23:31.098Z,3.98
2019-06-07T15:26:00.737Z,4.33
2019-06-07T15:28:30.323Z,4.17
2019-06-07T15:31:01.360Z,4.03
2019-06-07T15:33:31.765Z,4.22
2019-06-07T15:36:01.070Z,4.78
2019-06-07T15:38:31.048Z,4.50
2019-06-07T15:41:00.901Z,6.55
2019-06-07T15:43:31.082Z,6.80
2019-06-07T15:46:00.270Z,4.50
2019-06-07T15:48:29.817Z,4.80
2019-06-07T15:50:58.943Z,3.90
2019-06-07T15:53:32.774Z,4.10
2019-06-07T15:56:00.467Z,4.70
2019-06-07T15:58:30.863Z,4.60
2019-06-07T16:01:00.090Z,5.50
2019-06-07T16:03:29.720Z,3.80
2019-06-07T16:05:58.794Z,4.58
2019-06-07T16:08:28.334Z,5.05
2019-06-07T16:10:57.719Z,4.75
2019-06-07T16:13:26.966Z,5.33
2019-06-07T16:15:56.299Z,4.17
2019-06-07T16:18:25.531Z,4.20
2019-06-07T16:20:54.765Z,5.10
2019-06-07T16:23:24.201Z,6.50
2019-06-07T16:25:53.898Z,5.08
2019-06-07T16:28:23.225Z,4.78
2019-06-07T16:30:52.356Z,6.40
2019-06-07T16:33:21.804Z,4.95
2019-06-07T16:35:51.517Z,3.45
2019-06-07T16:38:20.679Z,4.58
2019-06-07T16:40:49.811Z,4.00
2019-06-07T16:43:18.909Z,3.65
2019-06-07T16:45:49.042Z,4.50
2019-06-07T16:48:18.392Z,5.33
2019-06-07T16:50:49.166Z,4.05
2019-06-07T16:53:19.502Z,4.12
2019-06-07T16:55:49.025Z,3.45
2019-06-07T16:58:18.575Z,3.87
2019-06-07T17:00:48.594Z,3.72
2019-06-07T17:03:19.228Z,4.12
2019-06-07T17:05:50.470Z,4.72
2019-06-07T17:08:19.394Z,4.65
2019-06-07T17:10:49.101Z,4.12
2019-06-07T17:13:32.546Z,5.55
2019-06-07T17:15:49.470Z,4.33
2019-06-07T17:18:19.554Z,4.03
2019-06-07T17:20:49.405Z,4.30
2019-06-07T17:23:18.691Z,4.10
2019-06-07T17:25:47.763Z,5.28
2019-06-07T17:28:17.061Z,4.58
2019-06-07T17:30:46.322Z,5.70
2019-06-07T17:33:15.580Z,4.78
2019-06-07T17:35:44.788Z,4.30
2019-06-07T17:38:14.261Z,4.97
2019-06-07T17:40:43.359Z,8.83
2019-06-07T17:43:12.889Z,1.52
2019-06-07T17:45:43.307Z,6.83
2019-06-07T17:48:12.744Z,2.47
2019-06-07T17:50:41.889Z,2.95
2019-06-07T17:53:11.017Z,2.22
2019-06-07T17:55:40.326Z,5.42
2019-06-07T17:58:10.165Z,3.02
2019-06-07T18:00:48.654Z,1.20
2019-06-07T18:03:18.402Z,1.87
2019-06-07T18:05:49.343Z,4.10
2019-06-07T18:08:18.523Z,2.33
2019-06-07T18:10:47.920Z,3.42
2019-06-07T18:13:17.158Z,5.03
2019-06-07T18:15:51.735Z,4.40
2019-06-07T18:18:18.717Z,1.02
2019-06-07T18:20:49.264Z,1.82
2019-06-07T18:23:19.282Z,5.10
2019-06-07T18:25:48.521Z,1.07
2019-06-07T18:28:18.018Z,3.02
2019-06-07T18:30:47.149Z,2.40
2019-06-07T18:33:16.375Z,3.77
2019-06-07T18:35:46.968Z,2.65
2019-06-07T18:38:16.356Z,3.12
2019-06-07T18:40:46.972Z,3.40
2019-06-07T18:43:16.340Z,2.75
2019-06-07T18:45:45.386Z,2.47
2019-06-07T18:48:14.596Z,1.65
2019-06-07T18:50:43.792Z,3.77
2019-06-07T18:53:12.928Z,3.02
2019-06-07T18:55:42.080Z,2.70
2019-06-07T18:58:11.222Z,2.37
2019-06-07T19:00:40.528Z,1.72
2019-06-07T19:03:09.986Z,0.98
2019-06-07T19:05:39.103Z,1.52
2019-06-07T19:08:08.588Z,1.07
2019-06-07T19:10:37.729Z,1.87
2019-06-07T19:13:06.942Z,0.60
2019-06-07T19:15:36.546Z,0.70
2019-06-07T19:18:05.919Z,0.60
2019-06-07T19:20:35.254Z,1.32
2019-06-07T19:23:04.443Z,1.05
2019-06-07T19:25:33.680Z,2.83
2019-06-07T19:28:03.011Z,1.02
2019-06-07T19:30:32.149Z,1.10
2019-06-07T19:33:01.808Z,1.55
2019-06-07T19:35:31.728Z,0.80
2019-06-07T19:38:02.095Z,0.62
2019-06-07T19:40:31.847Z,0.60
2019-06-07T19:43:03.964Z,0.60
2019-06-07T19:45:32.696Z,0.98
2019-06-07T19:48:02.852Z,1.30
2019-06-07T19:50:32.321Z,0.80
2019-06-07T19:53:01.483Z,2.35
2019-06-07T19:55:30.773Z,0.80
2019-06-07T19:58:00.574Z,1.20
2019-06-07T20:00:31.179Z,0.78
2019-06-07T20:03:00.302Z,0.70
2019-06-07T20:05:33.735Z,1.15
2019-06-07T20:08:02.624Z,1.02
2019-06-07T20:10:32.005Z,0.90
2019-06-07T20:13:02.879Z,1.92
2019-06-07T20:15:32.290Z,3.02
2019-06-07T20:18:01.685Z,1.20
2019-06-07T20:20:31.696Z,1.60
2019-06-07T20:23:01.056Z,2.52
2019-06-07T20:25:30.654Z,1.20
2019-06-07T20:28:01.291Z,2.15
2019-06-07T20:30:31.031Z,1.75
2019-06-07T20:33:01.721Z,1.22
2019-06-07T20:35:31.473Z,1.20
2019-06-07T20:38:01.102Z,2.80
2019-06-07T20:40:30.545Z,2.72
2019-06-07T20:42:59.834Z,2.08
2019-06-07T20:45:33.627Z,1.80
2019-06-07T20:48:00.319Z,2.50
2019-06-07T20:50:29.558Z,3.52
2019-06-07T20:52:59.810Z,1.45
2019-06-07T20:55:29.906Z,1.37
2019-06-07T20:57:59.180Z,1.25
2019-06-07T21:00:28.467Z,1.07
2019-06-07T21:02:58.997Z,1.30
2019-06-07T21:05:28.253Z,3.47
2019-06-07T21:07:57.431Z,1.72
2019-06-07T21:10:26.676Z,4.60
2019-06-07T21:12:55.870Z,1.17
2019-06-07T21:15:25.306Z,2.10
2019-06-07T21:17:54.612Z,2.52
2019-06-07T21:20:23.897Z,1.75
2019-06-07T21:22:53.109Z,1.60
2019-06-07T21:25:22.311Z,3.37
2019-06-07T21:27:51.494Z,1.50
2019-06-07T21:30:20.774Z,3.35
2019-06-07T21:32:50.932Z,3.90
2019-06-07T21:35:20.236Z,3.62
2019-06-07T21:37:49.873Z,1.40
2019-06-07T21:40:19.729Z,4.15
2019-06-07T21:42:49.212Z,8.93
2019-06-07T21:45:18.458Z,4.65
2019-06-07T21:47:47.948Z,4.78
2019-06-07T21:50:17.554Z,3.80
2019-06-07T21:52:47.122Z,3.45
2019-06-07T21:55:16.695Z,3.12
2019-06-07T21:57:56.306Z,4.33
2019-06-07T22:00:53.926Z,2.50
2019-06-07T22:03:23.868Z,4.22
2019-06-07T22:05:53.625Z,2.08
2019-06-07T22:08:22.881Z,1.32
2019-06-07T22:10:52.160Z,2.33
2019-06-07T22:13:21.327Z,1.30
2019-06-07T22:15:50.851Z,1.42
2019-06-07T22:18:19.939Z,1.52
2019-06-07T22:20:49.046Z,1.90
2019-06-07T22:23:18.131Z,8.60
2019-06-07T22:25:47.227Z,3.85
2019-06-07T22:28:16.536Z,2.55
2019-06-07T22:30:46.157Z,3.85
2019-06-07T22:33:15.865Z,2.85
2019-06-07T22:35:45.014Z,4.30
2019-06-07T22:38:18.500Z,1.85
2019-06-07T22:40:47.419Z,5.42
2019-06-07T22:43:19.255Z,2.92
2019-06-07T22:45:52.114Z,1.55
2019-06-07T22:48:21.341Z,1.87
2019-06-07T22:50:52.161Z,1.77
2019-06-07T22:53:21.322Z,2.35
2019-06-07T22:55:57.328Z,1.45
2019-06-07T22:58:27.013Z,4.33
2019-06-07T23:00:56.374Z,1.70
2019-06-07T23:03:25.515Z,2.27
2019-06-07T23:05:54.777Z,1.95
2019-06-07T23:08:24.038Z,1.87
2019-06-07T23:10:53.430Z,3.40
2019-06-07T23:13:22.551Z,3.10
2019-06-07T23:15:51.670Z,2.75
2019-06-07T23:18:21.138Z,3.47
2019-06-07T23:20:50.574Z,3.58
2019-06-07T23:23:20.071Z,1.85
2019-06-07T23:25:49.467Z,2.33
2019-06-07T23:28:18.781Z,1.27
2019-06-07T23:30:48.076Z,1.90
2019-06-07T23:33:17.222Z,3.00
2019-06-07T23:35:47.071Z,1.27
2019-06-07T23:38:17.011Z,2.83
2019-06-07T23:40:46.299Z,3.02
2019-06-07T23:43:15.691Z,1.65
2019-06-07T23:45:45.023Z,3.00
2019-06-07T23:48:15.372Z,2.45
2019-06-07T23:50:45.178Z,2.37
2019-06-07T23:53:15.587Z,3.30
2019-06-07T23:55:45.072Z,4.67
2019-06-07T23:58:14.279Z,1.47
